Time;durP1;ratioP1;P1;durP2;ratioP2;P2;SDS_P1;SDS_P2;PMS_P1;PMS_P2;Temp;Humidity;BMP_temperature;BMP_pressure;BME280_temperature;BME280_humidity;BME280_pressure;Samples;Min_cycle;Max_cycle;Signal;HPM_P1;HPM_P2
2022/08/25 00:01:21;;;;;;;;;15.00;14.00;;;;;28.72;52.15;101145.78;5038791;28;45258;-82
2022/08/25 00:03:47;;;;;;;;;14.00;12.75;;;;;28.67;51.71;101136.13;5037603;28;46132;-82
2022/08/25 00:06:14;;;;;;;;;15.00;13.75;;;;;28.64;51.49;101134.41;5038933;28;45475;-82
2022/08/25 00:08:41;;;;;;;;;15.25;14.00;;;;;28.65;51.67;101148.59;5037092;28;47668;-81
2022/08/25 00:11:20;;;;;;;;;14.75;14.25;;;;;28.61;51.48;101144.28;5041064;28;45224;-81
2022/08/25 00:13:49;;;;;;;;;13.75;13.25;;;;;28.55;52.35;101142.63;5043941;28;45387;-81
2022/08/25 00:16:17;;;;;;;;;16.00;13.75;;;;;28.55;52.88;101145.31;5038628;28;45391;-81
2022/08/25 00:18:46;;;;;;;;;16.50;14.75;;;;;28.53;53.29;101140.00;5037211;28;47796;-81
2022/08/25 00:21:13;;;;;;;;;14.75;11.25;;;;;28.54;52.16;101139.09;5046127;28;45761;-81
2022/08/25 00:23:39;;;;;;;;;19.25;13.25;;;;;28.53;52.16;101134.66;5057307;28;45386;-81
2022/08/25 00:26:06;;;;;;;;;15.25;12.75;;;;;28.49;52.22;101121.47;5058870;28;45503;-81
2022/08/25 00:28:32;;;;;;;;;14.50;13.00;;;;;28.51;51.95;101119.66;5058336;28;46183;-81
2022/08/25 00:31:00;;;;;;;;;13.25;13.25;;;;;28.49;51.73;101129.47;5058221;28;45480;-81
2022/08/25 00:33:26;;;;;;;;;14.00;14.00;;;;;28.46;51.38;101127.75;5058438;28;45384;-81
2022/08/25 00:35:53;;;;;;;;;13.00;12.50;;;;;28.39;50.99;101127.03;5060067;28;45505;-81
2022/08/25 00:38:19;;;;;;;;;13.00;12.25;;;;;28.35;51.51;101119.16;5063482;28;46060;-81
2022/08/25 00:41:04;;;;;;;;;13.25;12.00;;;;;28.31;50.95;101115.69;5060329;28;45313;-81
2022/08/25 00:43:57;;;;;;;;;13.50;12.25;;;;;28.26;51.12;101112.25;5059107;28;45400;-81
2022/08/25 00:46:28;;;;;;;;;11.00;11.00;;;;;28.26;51.32;101110.50;5058551;28;45308;-81
2022/08/25 00:49:26;;;;;;;;;13.00;11.50;;;;;28.24;51.36;101112.31;5058108;28;46650;-81
2022/08/25 00:52:04;;;;;;;;;10.75;10.75;;;;;28.23;52.15;101104.38;5056270;28;45708;-81
2022/08/25 00:54:39;;;;;;;;;11.25;11.25;;;;;28.23;52.26;101104.38;5058431;28;45376;-85
2022/08/25 00:57:08;;;;;;;;;9.50;9.50;;;;;28.21;51.65;101103.53;5058523;28;45416;-84
2022/08/25 00:59:34;;;;;;;;;11.50;11.50;;;;;28.17;52.14;101094.75;5056554;28;48196;-84
2022/08/25 01:02:00;;;;;;;;;12.50;11.00;;;;;28.19;52.05;101100.88;5059260;28;45406;-84
2022/08/25 01:04:26;;;;;;;;;9.50;9.50;;;;;28.15;51.85;101099.22;5064756;28;45545;-84
2022/08/25 01:06:57;;;;;;;;;10.00;9.50;;;;;28.13;52.23;101097.53;5063540;28;45510;-84
2022/08/25 01:09:23;;;;;;;;;11.00;10.00;;;;;28.10;52.49;101098.44;5058905;28;46654;-83
2022/08/25 01:11:48;;;;;;;;;8.75;8.50;;;;;28.07;53.10;101103.84;5040790;28;45449;-84
2022/08/25 01:14:17;;;;;;;;;10.75;10.50;;;;;28.00;52.55;101087.13;5038726;28;45450;-85
2022/08/25 01:16:44;;;;;;;;;11.50;9.50;;;;;28.00;52.68;101097.78;5037059;28;45681;-83
2022/08/25 01:19:12;;;;;;;;;15.50;11.50;;;;;28.00;52.61;101097.78;5038096;28;46119;-86
2022/08/25 01:21:43;;;;;;;;;11.00;11.00;;;;;27.96;52.87;101096.09;5052770;28;45716;-85
2022/08/25 01:24:13;;;;;;;;;12.00;11.00;;;;;27.96;52.48;101104.06;5058851;28;45339;-84
2022/08/25 01:26:38;;;;;;;;;11.25;10.25;;;;;27.93;52.87;101107.69;5060403;28;45404;-84
2022/08/25 01:29:20;;;;;;;;;14.25;12.00;;;;;27.92;53.10;101116.56;5062224;28;45871;-85
2022/08/25 01:31:48;;;;;;;;;12.50;11.50;;;;;27.88;52.52;101106.03;5064846;28;45345;-85
2022/08/25 01:34:15;;;;;;;;;11.50;10.75;;;;;27.87;52.63;101106.94;5060514;28;45368;-84
2022/08/25 01:36:43;;;;;;;;;12.50;11.75;;;;;27.85;52.20;101100.78;5059133;28;45315;-84
2022/08/25 01:39:10;;;;;;;;;12.75;11.25;;;;;27.86;52.54;101110.50;5058311;28;45986;-83
2022/08/25 01:41:53;;;;;;;;;12.25;10.25;;;;;27.85;52.39;101104.31;5038514;28;45701;-84
2022/08/25 01:44:18;;;;;;;;;10.25;9.75;;;;;27.84;52.88;101105.25;5059102;28;45468;-85
2022/08/25 01:46:44;;;;;;;;;10.00;10.00;;;;;27.84;52.74;101101.69;5058569;28;45407;-84
2022/08/25 01:49:10;;;;;;;;;12.50;10.25;;;;;27.85;52.46;101104.31;5059681;28;45475;-84
2022/08/25 01:51:47;;;;;;;;;11.50;11.50;;;;;27.83;52.34;101090.19;5058558;28;45330;-85
2022/08/25 01:54:13;;;;;;;;;7.25;7.25;;;;;27.77;52.75;101088.53;5060101;28;45442;-84
2022/08/25 01:56:44;;;;;;;;;9.50;9.50;;;;;27.79;53.12;101091.16;5062705;28;45485;-86
2022/08/25 01:59:13;;;;;;;;;12.75;12.75;;;;;27.82;52.86;101093.75;5060630;28;47478;-85
2022/08/25 02:01:39;;;;;;;;;12.25;9.50;;;;;27.78;53.47;101082.31;5057775;28;45574;-86
2022/08/25 02:04:05;;;;;;;;;10.75;10.50;;;;;27.77;53.00;101084.97;5056670;28;45426;-86
2022/08/25 02:06:32;;;;;;;;;9.25;9.25;;;;;27.71;53.28;101079.81;5058627;28;45314;-84
2022/08/25 02:09:04;;;;;;;;;10.25;10.25;;;;;27.61;53.46;101069.38;5059356;28;46652;-84
2022/08/25 02:11:31;;;;;;;;;10.25;10.25;;;;;27.67;53.40;101080.78;5058307;28;45327;-86
2022/08/25 02:13:58;;;;;;;;;12.25;10.75;;;;;27.65;53.51;101067.53;5056501;28;45350;-85
2022/08/25 02:16:28;;;;;;;;;14.00;11.50;;;;;27.61;53.42;101065.81;5058655;28;45564;-86
2022/08/25 02:18:55;;;;;;;;;12.75;10.50;;;;;27.60;53.39;101072.06;5062600;28;46832;-84
2022/08/25 02:21:21;;;;;;;;;13.25;12.00;;;;;27.52;53.68;101064.28;5043018;28;45426;-84
2022/08/25 02:23:47;;;;;;;;;9.75;9.00;;;;;27.55;54.12;101058.00;5061400;28;45437;-85
2022/08/25 02:26:17;;;;;;;;;12.25;12.25;;;;;27.52;53.65;101066.03;5057908;28;45374;-85
2022/08/25 02:28:44;;;;;;;;;12.75;11.00;;;;;27.47;53.81;101072.34;5057192;28;46110;-83
2022/08/25 02:31:11;;;;;;;;;12.00;11.00;;;;;27.38;54.19;101047.69;5056780;28;45376;-85
2022/08/25 02:33:37;;;;;;;;;11.25;10.25;;;;;27.34;54.07;101049.56;5056767;28;45449;-84
2022/08/25 02:36:03;;;;;;;;;11.00;11.00;;;;;27.29;54.23;101040.78;5056791;28;45591;-83
2022/08/25 02:38:29;;;;;;;;;13.25;10.75;;;;;27.28;54.34;101039.03;5056659;28;45806;-83
2022/08/25 02:40:57;;;;;;;;;13.00;11.00;;;;;27.28;54.71;101033.72;5057903;28;45291;-83
2022/08/25 02:43:24;;;;;;;;;11.00;9.50;;;;;27.29;54.48;101043.44;5059078;28;45271;-83
2022/08/25 02:45:51;;;;;;;;;8.25;8.25;;;;;27.26;54.62;101033.75;5046382;28;45547;-84
2022/08/25 02:48:16;;;;;;;;;14.50;12.00;;;;;27.23;54.57;101024.97;5064825;28;45412;-84
2022/08/25 02:50:52;;;;;;;;;9.25;9.25;;;;;27.23;54.95;101031.16;5048936;28;45292;-83
2022/08/25 02:53:19;;;;;;;;;11.25;11.25;;;;;27.22;55.11;101032.06;5036883;28;45277;-81
2022/08/25 02:55:46;;;;;;;;;11.00;10.75;;;;;27.20;55.46;101033.91;5037646;28;45298;-83
2022/08/25 02:58:12;;;;;;;;;13.00;11.25;;;;;27.17;55.60;101033.97;5036676;28;45509;-85
2022/08/25 03:00:38;;;;;;;;;14.50;12.25;;;;;27.14;55.62;101034.91;5039932;28;45410;-85
2022/08/25 03:03:05;;;;;;;;;12.50;11.75;;;;;27.13;55.67;101038.47;5043616;28;45360;-85
2022/08/25 03:05:30;;;;;;;;;11.00;10.00;;;;;27.08;55.68;101019.06;5058308;28;45501;-85
2022/08/25 03:07:56;;;;;;;;;10.50;9.50;;;;;27.10;55.63;101032.34;5043451;28;47563;-86
2022/08/25 03:10:22;;;;;;;;;10.50;10.00;;;;;27.08;55.40;101031.50;5065406;28;45399;-85
2022/08/25 03:12:47;;;;;;;;;10.75;10.75;;;;;27.03;55.79;101039.56;5068286;28;45319;-85
2022/08/25 03:15:15;;;;;;;;;10.50;10.50;;;;;26.97;56.25;101035.25;5067505;28;45398;-85
2022/08/25 03:17:42;;;;;;;;;10.00;10.00;;;;;26.96;55.90;101033.50;5063350;28;45328;-85
2022/08/25 03:20:08;;;;;;;;;12.00;12.00;;;;;26.92;56.34;101029.13;5061025;28;45766;-85
2022/08/25 03:22:35;;;;;;;;;10.50;9.75;;;;;26.86;56.64;101029.28;5061507;28;45391;-84
2022/08/25 03:27:47;;;;;;;;;10.75;10.75;;;;;26.77;57.02;101010.84;5061650;28;45682;-85
2022/08/25 03:30:12;;;;;;;;;10.25;10.25;;;;;26.77;56.99;101017.00;5060325;28;45824;-84
2022/08/25 03:32:38;;;;;;;;;11.75;11.00;;;;;26.73;57.71;101010.00;5060372;28;45205;-85
2022/08/25 03:35:05;;;;;;;;;10.00;10.00;;;;;26.70;57.23;100999.44;5061632;28;45257;-84
2022/08/25 03:37:30;;;;;;;;;8.25;8.25;;;;;26.66;57.14;100988.00;5065924;28;45489;-84
2022/08/25 03:39:56;;;;;;;;;10.00;9.00;;;;;26.65;57.28;100980.06;5065894;28;45383;-85
2022/08/25 03:42:21;;;;;;;;;10.75;10.00;;;;;26.62;57.02;100985.44;5060919;28;45366;-83
2022/08/25 03:44:48;;;;;;;;;11.50;10.50;;;;;26.60;57.58;100977.50;5060146;28;45486;-85
2022/08/25 03:47:13;;;;;;;;;9.50;9.50;;;;;26.61;56.91;100975.72;5059108;28;46385;-85
2022/08/25 03:49:39;;;;;;;;;11.00;10.50;;;;;26.62;56.84;100972.16;5059256;28;45436;-84
2022/08/25 03:52:05;;;;;;;;;11.25;10.75;;;;;26.63;57.53;100971.22;5059318;28;45269;-84
2022/08/25 03:54:30;;;;;;;;;12.75;10.50;;;;;26.62;57.49;100970.38;5059988;28;45549;-84
2022/08/25 03:56:56;;;;;;;;;10.00;8.75;;;;;26.62;57.61;100975.69;5062019;28;46367;-85
2022/08/25 03:59:21;;;;;;;;;13.00;9.50;;;;;26.62;57.51;100986.31;5061008;28;45449;-84
2022/08/25 04:01:47;;;;;;;;;10.50;10.00;;;;;26.61;57.56;100989.00;5063501;28;45835;-86
2022/08/25 04:04:15;;;;;;;;;11.00;11.00;;;;;26.61;57.31;100997.84;5065941;28;45548;-83
2022/08/25 04:06:43;;;;;;;;;10.50;10.50;;;;;26.59;57.36;100996.97;5062780;28;46172;-85
2022/08/25 04:09:09;;;;;;;;;10.25;9.25;;;;;26.60;57.65;101004.03;5060299;28;45739;-84
2022/08/25 04:11:35;;;;;;;;;9.25;9.25;;;;;26.57;57.20;101009.41;5059749;28;45405;-84
2022/08/25 04:14:03;;;;;;;;;12.50;10.50;;;;;26.52;57.18;101005.97;5060100;28;45331;-83
2022/08/25 04:16:30;;;;;;;;;12.25;10.25;;;;;26.51;57.17;101010.41;5059544;28;45483;-84
2022/08/25 04:18:59;;;;;;;;;10.75;9.75;;;;;26.48;57.17;100998.97;5063360;28;45644;-86
2022/08/25 04:21:26;;;;;;;;;10.00;10.00;;;;;26.46;57.18;101011.41;5061468;28;45330;-84
2022/08/25 04:23:54;;;;;;;;;13.25;10.75;;;;;26.37;57.79;101005.34;5058846;28;45644;-86
2022/08/25 04:26:46;;;;;;;;;13.50;11.00;;;;;26.41;57.72;101003.50;5061797;28;45221;-85
2022/08/25 04:29:23;;;;;;;;;11.25;11.25;;;;;26.39;57.53;101006.19;5060149;28;45748;-85
2022/08/25 04:31:49;;;;;;;;;11.00;9.75;;;;;26.34;57.37;101004.53;5023568;28;45239;-86
2022/08/25 04:34:19;;;;;;;;;10.00;9.25;;;;;26.31;58.12;101008.13;5039183;28;45487;-85
2022/08/25 04:36:45;;;;;;;;;10.25;10.25;;;;;26.34;58.09;101020.47;5020797;28;45469;-86
2022/08/25 04:39:12;;;;;;;;;11.75;9.75;;;;;26.32;58.04;101011.63;5039227;28;45319;-86
2022/08/25 04:41:38;;;;;;;;;12.75;10.25;;;;;26.32;58.42;101016.94;5039073;28;45429;-87
2022/08/25 04:44:04;;;;;;;;;11.25;11.25;;;;;26.33;58.31;101019.59;5038402;28;45562;-85
2022/08/25 04:46:33;;;;;;;;;11.50;11.25;;;;;26.33;57.79;101024.00;5038233;28;45818;-86
2022/08/25 04:49:00;;;;;;;;;11.75;10.50;;;;;26.28;57.86;101029.41;5038011;28;45774;-86
2022/08/25 04:51:32;;;;;;;;;13.00;13.00;;;;;26.22;57.81;101029.53;5039671;28;45300;-84
2022/08/25 04:54:00;;;;;;;;;13.25;12.00;;;;;26.17;57.78;101036.66;5045974;28;45302;-87
2022/08/25 04:56:26;;;;;;;;;11.00;11.00;;;;;26.14;58.13;101040.25;5044887;28;45990;-87
2022/08/25 04:58:52;;;;;;;;;13.25;12.50;;;;;26.14;58.51;101045.56;5038151;28;45716;-86
2022/08/25 05:01:22;;;;;;;;;10.75;10.75;;;;;26.14;58.99;101048.22;5038250;28;45360;-86
2022/08/25 05:03:55;;;;;;;;;17.50;14.00;;;;;26.13;59.38;101046.47;5038918;28;45487;-87
2022/08/25 05:06:21;;;;;;;;;14.25;13.50;;;;;26.11;59.45;101049.16;5039563;28;46630;-86
2022/08/25 05:08:47;;;;;;;;;14.75;14.25;;;;;26.10;58.56;101057.13;5038643;28;45718;-86
2022/08/25 05:11:16;;;;;;;;;16.75;15.75;;;;;26.12;58.91;101065.94;5038305;28;45205;-86
2022/08/25 05:13:42;;;;;;;;;13.75;13.50;;;;;26.12;58.58;101063.28;5038422;28;45466;-86
2022/08/25 05:16:08;;;;;;;;;13.75;12.75;;;;;26.11;57.57;101062.41;5038137;28;46340;-85
2022/08/25 05:18:34;;;;;;;;;15.25;12.25;;;;;26.12;58.24;101068.59;5026035;28;45282;-85
2022/08/25 05:21:03;;;;;;;;;15.00;11.75;;;;;26.09;58.46;101061.56;5044335;28;45277;-85
2022/08/25 05:23:29;;;;;;;;;13.75;13.25;;;;;26.09;59.18;101068.59;5039681;28;45284;-84
2022/08/25 05:25:54;;;;;;;;;17.50;15.25;;;;;26.07;60.29;101065.97;5036435;28;45559;-86
2022/08/25 05:28:20;;;;;;;;;13.00;11.75;;;;;26.05;61.23;101062.47;5036249;28;45551;-84
2022/08/25 05:30:48;;;;;;;;;14.75;14.75;;;;;25.98;63.27;101065.22;5037619;28;45399;-84
2022/08/25 05:33:15;;;;;;;;;22.50;19.50;;;;;25.93;64.19;101071.50;5037637;28;45295;-84
2022/08/25 05:35:41;;;;;;;;;21.50;16.50;;;;;25.88;66.90;101070.69;5037629;28;45251;-84
2022/08/25 05:38:07;;;;;;;;;17.00;15.25;;;;;25.83;67.79;101069.88;5039763;28;45414;-84
2022/08/25 05:40:33;;;;;;;;;18.50;16.50;;;;;25.81;68.71;101071.69;5042213;28;45245;-84
2022/08/25 05:42:59;;;;;;;;;14.25;14.25;;;;;25.78;69.18;101069.06;5047103;28;45551;-82
2022/08/25 05:45:24;;;;;;;;;17.75;14.00;;;;;25.77;68.83;101069.97;5030886;28;47017;-85
2022/08/25 05:47:50;;;;;;;;;18.75;16.00;;;;;25.75;69.19;101066.47;5040212;28;45369;-85
2022/08/25 05:50:17;;;;;;;;;19.50;17.25;;;;;25.74;69.79;101072.69;5037906;28;45419;-86
2022/08/25 05:52:44;;;;;;;;;15.00;12.25;;;;;25.76;70.15;101070.84;5040474;28;45212;-85
2022/08/25 05:55:10;;;;;;;;;18.00;17.50;;;;;25.78;69.17;101075.25;5043298;28;45298;-85
2022/08/25 05:57:36;;;;;;;;;17.00;16.25;;;;;25.78;68.84;101066.41;5036419;28;45292;-84
2022/08/25 06:00:04;;;;;;;;;15.00;14.00;;;;;25.78;68.80;101069.97;5043511;28;45395;-84
2022/08/25 06:02:48;;;;;;;;;13.75;13.75;;;;;25.80;68.94;101070.81;5052070;28;45249;-85
2022/08/25 06:05:17;;;;;;;;;16.75;15.75;;;;;25.83;67.84;101061.03;5059483;28;45410;-83
2022/08/25 06:07:45;;;;;;;;;13.25;13.25;;;;;25.85;66.58;101070.75;5060548;28;45777;-83
2022/08/25 06:10:13;;;;;;;;;17.75;15.25;;;;;25.85;66.24;101068.09;5062143;28;45404;-84
2022/08/25 06:12:45;;;;;;;;;17.75;15.25;;;;;25.88;66.04;101060.06;5063782;28;45447;-82
2022/08/25 06:15:18;;;;;;;;;16.75;14.75;;;;;25.93;64.61;101060.00;5060247;28;45446;-83
2022/08/25 06:17:44;;;;;;;;;17.00;15.50;;;;;25.96;63.67;101054.66;5063007;28;45491;-83
2022/08/25 06:20:22;;;;;;;;;16.00;16.00;;;;;26.00;63.11;101059.03;5057000;28;45466;-82
2022/08/25 06:22:49;;;;;;;;;12.75;10.75;;;;;26.01;61.80;101060.78;5041376;28;45347;-82
2022/08/25 06:25:17;;;;;;;;;18.00;16.25;;;;;26.03;61.36;101060.75;5056415;28;46484;-82
2022/08/25 06:27:44;;;;;;;;;13.25;13.00;;;;;26.05;60.57;101049.19;5039185;28;45437;-84
2022/08/25 06:30:13;;;;;;;;;14.00;12.25;;;;;26.10;61.29;101052.72;5059588;28;45288;-82
2022/08/25 06:32:41;;;;;;;;;14.50;14.25;;;;;26.13;60.33;101054.41;5060368;28;45450;-81
2022/08/25 06:35:10;;;;;;;;;16.00;13.50;;;;;26.11;59.97;101059.78;5064599;28;45438;-87
2022/08/25 06:37:37;;;;;;;;;16.25;16.25;;;;;26.15;59.55;101065.00;5062228;28;45799;-84
2022/08/25 06:40:06;;;;;;;;;15.50;15.50;;;;;26.14;60.33;101061.50;5059488;28;45365;-82
2022/08/25 06:42:31;;;;;;;;;16.25;14.25;;;;;26.19;60.20;101061.41;5041461;28;45557;-80
2022/08/25 06:44:57;;;;;;;;;17.25;14.25;;;;;26.24;60.48;101062.22;5058668;28;46682;-84
2022/08/25 06:47:23;;;;;;;;;18.25;15.75;;;;;26.25;60.00;101058.63;5059321;28;45830;-83
2022/08/25 06:49:48;;;;;;;;;20.25;13.75;;;;;26.27;60.33;101052.44;5061124;28;45331;-93
2022/08/25 06:52:15;;;;;;;;;16.00;14.25;;;;;26.31;59.69;101055.91;5064073;28;45313;-84
2022/08/25 06:54:41;;;;;;;;;15.75;15.75;;;;;26.34;59.99;101058.50;5044251;28;45875;-87
2022/08/25 06:57:08;;;;;;;;;17.00;15.00;;;;;26.37;59.58;101057.56;5066069;28;45303;-84
2022/08/25 06:59:35;;;;;;;;;13.50;13.00;;;;;26.40;59.88;101065.50;5070669;28;45410;-82
2022/08/25 07:02:03;;;;;;;;;18.50;15.75;;;;;26.46;59.56;101068.03;5062779;28;45482;-86
2022/08/25 07:04:29;;;;;;;;;15.00;15.00;;;;;26.51;59.44;101066.16;5059911;28;46279;-84
2022/08/25 07:06:54;;;;;;;;;21.25;20.00;;;;;26.54;59.81;101078.53;5061445;28;45233;-86
2022/08/25 07:09:20;;;;;;;;;19.25;17.25;;;;;26.58;59.88;101069.59;5063555;28;45300;-86
2022/08/25 07:11:46;;;;;;;;;17.00;15.25;;;;;26.63;58.90;101064.19;5054563;28;45536;-87
2022/08/25 07:14:15;;;;;;;;;17.75;15.75;;;;;26.67;59.38;101071.22;5061816;28;46069;-86
2022/08/25 07:16:42;;;;;;;;;18.50;15.25;;;;;26.72;58.85;101072.00;5060890;28;45501;-85
2022/08/25 07:19:09;;;;;;;;;17.50;14.25;;;;;26.78;58.50;101069.25;5044869;28;45359;-88
2022/08/25 07:21:37;;;;;;;;;17.75;15.50;;;;;26.81;58.40;101070.97;5061335;28;45473;-84
2022/08/25 07:24:12;;;;;;;;;14.75;14.25;;;;;26.81;57.98;101068.31;5065908;28;45400;-87
2022/08/25 07:26:41;;;;;;;;;16.50;14.25;;;;;26.84;57.49;101073.59;5074423;28;45397;-87
2022/08/25 07:29:10;;;;;;;;;21.50;18.75;;;;;26.89;57.83;101077.00;5060047;28;45466;-82
2022/08/25 07:31:36;;;;;;;;;21.25;18.75;;;;;26.92;57.99;101079.63;5071586;28;45524;-81
2022/08/25 07:36:46;;;;;;;;;17.00;16.00;;;;;26.95;57.69;101081.34;5072554;28;45881;-81
2022/08/25 07:39:12;;;;;;;;;14.75;13.50;;;;;26.96;56.95;101078.66;5063535;28;45285;-81
2022/08/25 07:41:41;;;;;;;;;17.25;16.25;;;;;26.96;56.86;101076.00;5073554;28;45337;-81
2022/08/25 07:44:09;;;;;;;;;17.00;16.50;;;;;27.00;56.92;101071.50;5059233;28;46351;-83
2022/08/25 07:46:35;;;;;;;;;19.25;16.00;;;;;27.02;55.93;101075.00;5058442;28;45492;-82
2022/08/25 07:49:01;;;;;;;;;15.25;15.00;;;;;27.08;56.38;101082.00;5070453;28;45153;-82
2022/08/25 07:51:27;;;;;;;;;15.00;15.00;;;;;27.12;56.59;101065.94;5076756;28;45232;-82
2022/08/25 07:53:52;;;;;;;;;18.75;17.00;;;;;27.26;55.68;101072.78;5071133;28;45465;-80
2022/08/25 07:56:18;;;;;;;;;18.25;15.50;;;;;27.35;56.12;101073.44;5059443;28;45308;-82
2022/08/25 07:58:46;;;;;;;;;15.50;14.75;;;;;27.44;55.49;101064.44;5058677;28;45403;-81
2022/08/25 08:01:17;;;;;;;;;17.00;16.00;;;;;27.55;54.70;101065.97;5059695;28;45290;-81
2022/08/25 08:03:44;;;;;;;;;16.00;14.00;;;;;27.63;53.70;101062.25;5058172;28;45787;-82
2022/08/25 08:06:12;;;;;;;;;13.75;11.25;;;;;27.68;53.94;101053.28;5058562;28;45426;-83
2022/08/25 08:08:43;;;;;;;;;15.00;13.25;;;;;27.76;53.14;101060.19;5022164;28;45419;-81
2022/08/25 08:11:15;;;;;;;;;13.75;13.25;;;;;27.87;51.85;101062.56;5039475;28;45379;-84
2022/08/25 08:13:41;;;;;;;;;12.75;12.75;;;;;27.89;50.68;101063.41;5063662;28;45335;-83
2022/08/25 08:16:11;;;;;;;;;13.75;13.25;;;;;27.91;49.37;101082.03;5069405;28;45276;-84
2022/08/25 08:18:37;;;;;;;;;14.00;13.25;;;;;27.86;48.76;101103.38;5071904;28;45433;-78
2022/08/25 08:21:03;;;;;;;;;16.25;16.00;;;;;27.85;48.61;101119.41;5049627;28;45382;-81
2022/08/25 08:23:29;;;;;;;;;17.50;16.50;;;;;27.81;51.35;101110.63;5060158;28;45371;-82
2022/08/25 08:25:55;;;;;;;;;17.75;16.50;;;;;27.73;51.83;101083.31;5059171;28;45250;-81
2022/08/25 08:28:21;;;;;;;;;19.25;15.00;;;;;27.73;52.25;101093.97;5059808;28;45480;-80
2022/08/25 08:30:47;;;;;;;;;14.75;14.00;;;;;27.66;52.17;101111.84;5058586;28;45474;-82
2022/08/25 08:33:13;;;;;;;;;19.00;17.50;;;;;27.64;54.34;101106.53;5058648;28;45465;-83
2022/08/25 08:35:40;;;;;;;;;20.50;16.00;;;;;27.65;56.10;101094.13;5059533;28;45401;-84
2022/08/25 08:38:08;;;;;;;;;18.50;15.00;;;;;27.70;55.49;101097.53;5060441;28;45502;-81
2022/08/25 08:42:15;;;;;;;;;16.00;16.00;;;;;27.82;54.76;101109.72;5078527;28;45458;-83
2022/08/25 08:43:33;;;;;;;;;14.25;14.25;;;;;27.94;54.65;101085.50;5063287;28;46067;-85
2022/08/25 08:45:58;;;;;;;;;15.50;15.00;;;;;28.04;54.55;101101.22;5057920;28;45636;-79
2022/08/25 08:48:54;;;;;;;;;17.75;14.00;;;;;28.06;53.54;101108.25;5058126;28;45376;-79
2022/08/25 08:51:31;;;;;;;;;17.75;16.75;;;;;28.02;53.84;101095.97;5057737;28;45468;-83
2022/08/25 08:54:19;;;;;;;;;15.50;15.50;;;;;27.93;54.53;101110.34;5056920;28;46360;-81
2022/08/25 08:56:49;;;;;;;;;14.00;13.00;;;;;27.86;54.27;101118.50;5039259;28;45430;-79
2022/08/25 08:59:18;;;;;;;;;15.50;13.50;;;;;27.79;54.28;101121.31;5042496;28;45446;-78
2022/08/25 09:01:55;;;;;;;;;15.25;14.25;;;;;27.69;55.01;101130.41;5050407;28;45556;-80
2022/08/25 09:04:45;;;;;;;;;16.00;13.00;;;;;27.61;54.79;101127.91;5061210;28;46352;-78
2022/08/25 09:07:17;;;;;;;;;15.00;15.00;;;;;27.58;55.11;101121.78;5062365;28;45387;-76
2022/08/25 09:09:44;;;;;;;;;15.00;13.00;;;;;27.58;54.25;101135.06;5079265;27;45303;-77
2022/08/25 09:12:32;;;;;;;;;14.00;13.00;;;;;27.54;53.53;101128.06;5078875;28;45381;-80
2022/08/25 09:18:58;;;;;;;;;12.75;12.75;;;;;27.49;54.18;101114.84;5041387;28;46014;-79
2022/08/25 09:21:48;;;;;;;;;16.00;15.00;;;;;27.50;54.35;101114.81;5031157;28;45489;-81
2022/08/25 09:24:46;;;;;;;;;13.75;12.50;;;;;27.51;54.66;101115.72;5058929;28;45395;-83
2022/08/25 09:27:45;;;;;;;;;16.75;13.25;;;;;27.54;54.47;101109.44;5030996;28;46016;-80
2022/08/25 09:30:15;;;;;;;;;11.50;11.50;;;;;27.56;53.03;101107.63;5050814;28;45298;-84
2022/08/25 09:32:45;;;;;;;;;10.25;9.00;;;;;27.62;52.22;101104.81;5064749;28;45276;-84
2022/08/25 09:35:26;;;;;;;;;13.25;11.00;;;;;27.60;52.50;101099.53;5061386;28;45509;-81
2022/08/25 09:37:55;;;;;;;;;11.25;11.25;;;;;27.64;52.98;101105.66;5041104;28;45454;-79
2022/08/25 09:40:23;;;;;;;;;11.50;10.25;;;;;27.67;53.54;101110.03;5058874;28;45802;-83
2022/08/25 09:42:52;;;;;;;;;9.50;9.50;;;;;27.68;53.59;101107.38;5059788;28;45995;-79
2022/08/25 09:45:43;;;;;;;;;9.25;7.75;;;;;27.67;52.88;101104.72;5061176;28;45437;-79
2022/08/25 09:48:41;;;;;;;;;12.75;11.00;;;;;27.68;52.36;101109.13;5056179;28;45483;-78
2022/08/25 09:51:30;;;;;;;;;9.75;7.50;;;;;27.68;51.98;101107.38;5057154;28;45269;-79
2022/08/25 09:54:02;;;;;;;;;11.75;10.50;;;;;27.68;52.06;101117.13;5072378;27;45313;-79
2022/08/25 09:56:31;;;;;;;;;10.50;10.00;;;;;27.69;52.21;101108.22;5063834;28;45204;-80
2022/08/25 09:59:25;;;;;;;;;10.00;10.00;;;;;27.74;52.68;101103.69;5060885;28;46365;-79
2022/08/25 10:01:54;;;;;;;;;10.00;10.00;;;;;27.79;52.78;101100.03;5041178;28;45790;-83
2022/08/25 10:04:35;;;;;;;;;8.75;8.75;;;;;27.81;52.09;101095.50;5037852;28;45302;-81
2022/08/25 10:07:19;;;;;;;;;10.00;10.00;;;;;27.87;52.01;101098.97;5019282;28;45424;-79
2022/08/25 10:09:52;;;;;;;;;8.00;8.00;;;;;27.93;51.61;101089.06;5039351;28;46268;-79
2022/08/25 10:12:23;;;;;;;;;10.00;9.25;;;;;27.99;51.15;101097.78;5055238;28;45501;-78
2022/08/25 10:14:50;;;;;;;;;10.25;10.00;;;;;28.01;51.11;101094.19;5056645;28;45259;-79
2022/08/25 10:17:25;;;;;;;;;9.50;9.50;;;;;28.07;51.21;101083.41;5057142;28;45697;-80
2022/08/25 10:19:53;;;;;;;;;9.00;9.00;;;;;28.14;50.70;101080.59;5056636;28;46004;-81
2022/08/25 10:22:31;;;;;;;;;8.00;8.00;;;;;28.16;50.21;101074.34;5055645;28;45878;-79
2022/08/25 10:24:58;;;;;;;;;9.75;9.00;;;;;28.18;49.33;101075.19;5055405;28;45381;-80
2022/08/25 10:27:59;;;;;;;;;7.75;7.75;;;;;28.26;48.99;101073.22;5057954;28;45338;-81
2022/08/25 10:30:39;;;;;;;;;11.25;9.75;;;;;28.31;48.52;101061.56;5058757;28;45459;-83
2022/08/25 10:33:17;;;;;;;;;7.75;7.75;;;;;28.36;48.81;101060.53;5059963;28;45272;-87
2022/08/25 10:35:56;;;;;;;;;10.50;10.50;;;;;28.41;49.23;101053.31;5066247;28;45398;-80
2022/08/25 10:38:33;;;;;;;;;10.25;9.75;;;;;28.48;48.19;101050.47;5056565;28;45499;-81
2022/08/25 10:41:36;;;;;;;;;8.50;8.50;;;;;28.55;48.19;101046.75;5054804;28;45461;-81
2022/08/25 10:45:41;;;;;;;;;10.00;10.00;;;;;28.58;46.78;101042.19;5055953;28;45317;-80
2022/08/25 10:47:24;;;;;;;;;11.25;10.00;;;;;28.70;46.38;101034.78;5055016;28;45325;-80
2022/08/25 10:49:55;;;;;;;;;9.75;8.50;;;;;28.73;46.19;101040.06;5009249;28;45464;-82
2022/08/25 10:52:28;;;;;;;;;13.25;10.50;;;;;28.79;46.28;101041.66;5054567;28;46184;-79
2022/08/25 10:55:11;;;;;;;;;11.25;11.25;;;;;28.84;45.59;101034.44;5057446;28;45493;-81
2022/08/25 10:58:01;;;;;;;;;9.00;8.00;;;;;28.89;45.53;101029.84;5054427;28;45328;-82
2022/08/25 11:00:38;;;;;;;;;10.50;9.75;;;;;28.93;45.16;101030.66;5055904;28;45456;-80
2022/08/25 11:03:20;;;;;;;;;11.75;10.75;;;;;28.99;45.43;101026.00;5054921;28;46060;-82
2022/08/25 11:06:03;;;;;;;;;10.00;9.50;;;;;29.08;43.99;101045.31;5038076;28;45679;-80
2022/08/25 11:08:34;;;;;;;;;12.50;11.50;;;;;29.15;44.73;101042.44;5055983;28;45343;-81
2022/08/25 11:11:08;;;;;;;;;9.75;8.50;;;;;29.15;44.36;101039.78;5058763;28;45442;-79
2022/08/25 11:13:49;;;;;;;;;8.00;8.00;;;;;29.21;44.08;101036.03;5056396;28;45265;-79
2022/08/25 11:16:20;;;;;;;;;13.75;12.00;;;;;29.26;43.42;101033.25;5037687;28;45216;-80
2022/08/25 11:18:56;;;;;;;;;11.25;10.25;;;;;29.29;44.22;101038.47;5056986;28;45500;-80
2022/08/25 11:22:03;;;;;;;;;13.25;11.75;;;;;29.36;44.28;101031.19;5058092;28;45435;-79
2022/08/25 11:24:36;;;;;;;;;9.75;9.00;;;;;29.41;43.86;101035.47;5058309;28;45400;-79
2022/08/25 11:27:05;;;;;;;;;10.50;9.75;;;;;29.45;44.33;101030.91;5056798;28;45406;-78
2022/08/25 11:29:35;;;;;;;;;10.50;10.50;;;;;29.50;44.48;101032.50;5058951;28;45308;-79
2022/08/25 11:32:02;;;;;;;;;12.00;11.50;;;;;29.57;44.16;101030.53;5058822;28;45441;-79
2022/08/25 11:34:35;;;;;;;;;12.75;11.75;;;;;29.64;43.90;101042.75;5058453;28;46128;-80
2022/08/25 11:37:08;;;;;;;;;11.50;10.00;;;;;29.69;44.35;101037.28;5058499;28;45812;-79